Time;durP1;ratioP1;P1;durP2;ratioP2;P2;SDS_P1;SDS_P2;PMS_P1;PMS_P2;Temp;Humidity;BMP_temperature;BMP_pressure;BME280_temperature;BME280_humidity;BME280_pressure;Samples;Min_cycle;Max_cycle;Signal;HPM_P1;HPM_P2
2022/03/25 00:04:33;;;;;;;18.13;11.63;;;;;;;;;;4994348;28;20396;-64
2022/03/25 00:19:22;;;;;;;19.07;10.20;;;;;;;;;;4953677;29;20790;-64
2022/03/25 01:14:00;;;;;;;15.13;9.37;;;;;;;;;;4993399;28;20813;-64
2022/03/25 01:16:44;;;;;;;13.27;9.90;;;;;;;;;;4993753;28;20400;-64
2022/03/25 01:19:29;;;;;;;19.80;10.13;;;;;;;;;;4992832;28;20467;-64
2022/03/25 01:24:49;;;;;;;19.60;11.40;;;;;;;;;;4993479;28;20958;-72
2022/03/25 01:35:29;;;;;;;14.83;9.77;;;;;;;;;;4993203;28;20388;-64
2022/03/25 01:59:34;;;;;;;22.80;10.23;;;;;;;;;;4993081;28;20892;-64
2022/03/25 02:04:56;;;;;;;15.00;10.03;;;;;;;;;;4993018;28;20734;-63
2022/03/25 02:25:26;;;;;;;18.93;10.60;;;;;;;;;;4996347;28;20377;-63
2022/03/25 05:02:20;;;;;;;12.70;8.37;;;;;;;;;;1480085;26;20961;-55
2022/03/25 05:05:13;;;;;;;16.57;8.20;;;;;;;;;;5013401;28;20407;-58
2022/03/25 05:17:46;;;;;;;12.93;8.63;;;;;;;;;;4858810;29;20583;-58
2022/03/25 05:20:28;;;;;;;18.00;8.30;;;;;;;;;;4858710;29;20410;-55
2022/03/25 05:25:47;;;;;;;12.37;8.10;;;;;;;;;;5012789;28;20415;-56
2022/03/25 05:31:11;;;;;;;12.30;7.37;;;;;;;;;;5012872;28;20451;-55
2022/03/25 05:33:53;;;;;;;10.57;7.40;;;;;;;;;;5013220;28;20416;-56
2022/03/25 05:44:58;;;;;;;14.63;7.97;;;;;;;;;;5013207;28;20384;-58
2022/03/25 05:47:25;;;;;;;12.40;7.83;;;;;;;;;;5013802;28;20430;-55
2022/03/25 05:55:34;;;;;;;13.23;7.53;;;;;;;;;;5016577;28;20407;-54
2022/03/25 05:58:27;;;;;;;16.97;9.30;;;;;;;;;;5016764;28;20522;-58
2022/03/25 07:10:00;;;;;;;18.07;8.83;;;;;;;;;;5032370;22;20617;-77
2022/03/25 07:12:26;;;;;;;14.13;9.73;;;;;;;;;;5020657;28;20453;-78
2022/03/25 07:14:52;;;;;;;14.10;9.20;;;;;;;;;;5035154;28;20451;-77
2022/03/25 07:17:18;;;;;;;16.27;9.50;;;;;;;;;;5032678;28;20425;-78
2022/03/25 07:19:44;;;;;;;17.60;10.40;;;;;;;;;;5020291;28;20494;-77
2022/03/25 07:22:10;;;;;;;17.83;10.27;;;;;;;;;;5019492;28;20435;-79
2022/03/25 07:24:36;;;;;;;22.00;9.87;;;;;;;;;;5017104;28;20172;-77
2022/03/25 07:27:03;;;;;;;16.30;10.50;;;;;;;;;;5013487;28;20935;-77
2022/03/25 07:29:29;;;;;;;20.10;12.27;;;;;;;;;;5015506;28;20427;-77
2022/03/25 07:31:55;;;;;;;16.30;11.30;;;;;;;;;;5020506;28;20446;-77
2022/03/25 07:34:21;;;;;;;18.60;11.40;;;;;;;;;;5020732;28;20400;-77
2022/03/25 07:36:47;;;;;;;15.63;11.60;;;;;;;;;;5019092;28;20890;-78
2022/03/25 07:39:13;;;;;;;16.60;11.20;;;;;;;;;;5019003;28;20518;-78
2022/03/25 07:41:39;;;;;;;17.60;12.73;;;;;;;;;;5017540;28;20945;-78
2022/03/25 07:44:05;;;;;;;23.00;12.43;;;;;;;;;;5016409;28;20835;-77
2022/03/25 07:46:31;;;;;;;25.67;12.77;;;;;;;;;;5017136;28;20506;-77
2022/03/25 07:48:58;;;;;;;18.63;12.33;;;;;;;;;;5015077;28;20462;-77
2022/03/25 07:51:24;;;;;;;19.13;12.67;;;;;;;;;;5015342;28;20446;-76
2022/03/25 07:53:50;;;;;;;24.53;11.43;;;;;;;;;;5013739;28;20419;-76
2022/03/25 07:56:16;;;;;;;20.37;12.23;;;;;;;;;;5012395;28;20422;-78
2022/03/25 07:58:43;;;;;;;19.47;11.60;;;;;;;;;;5014847;28;20431;-77
2022/03/25 08:01:09;;;;;;;19.40;12.40;;;;;;;;;;5020790;28;20426;-77
2022/03/25 08:03:35;;;;;;;23.63;12.03;;;;;;;;;;5021321;28;20534;-77
2022/03/25 08:06:03;;;;;;;18.30;12.77;;;;;;;;;;5016615;28;20407;-77
2022/03/25 08:08:29;;;;;;;18.30;13.00;;;;;;;;;;5017130;28;20564;-77
2022/03/25 08:10:56;;;;;;;22.23;12.70;;;;;;;;;;5016914;28;20423;-77
2022/03/25 08:13:25;;;;;;;20.17;12.63;;;;;;;;;;5018805;28;20772;-77
2022/03/25 08:15:51;;;;;;;26.90;12.53;;;;;;;;;;5000784;28;20408;-77
2022/03/25 08:18:17;;;;;;;22.13;13.25;;;;;;;;;;5015871;28;20773;-77
2022/03/25 08:20:45;;;;;;;22.23;12.43;;;;;;;;;;5016141;28;20187;-76
2022/03/25 08:23:12;;;;;;;20.07;12.93;;;;;;;;;;5013657;28;20455;-76
2022/03/25 08:28:23;;;;;;;23.15;14.70;;;;;;;;;;5012819;28;20832;-77
2022/03/25 08:30:50;;;;;;;25.03;14.30;;;;;;;;;;5015285;28;20165;-77
2022/03/25 08:33:16;;;;;;;23.30;13.53;;;;;;;;;;5013962;28;20415;-77
2022/03/25 08:35:43;;;;;;;24.47;14.50;;;;;;;;;;5012769;28;20478;-77
2022/03/25 08:38:10;;;;;;;21.60;13.60;;;;;;;;;;5013742;28;20776;-77
2022/03/25 08:40:36;;;;;;;23.30;14.80;;;;;;;;;;5014352;28;20442;-77
2022/03/25 08:43:04;;;;;;;30.30;14.67;;;;;;;;;;5014699;28;20438;-78
2022/03/25 08:45:30;;;;;;;20.07;14.53;;;;;;;;;;5015148;28;20919;-77
2022/03/25 08:47:57;;;;;;;20.77;13.23;;;;;;;;;;5015617;28;20407;-76
2022/03/25 08:50:23;;;;;;;24.50;14.67;;;;;;;;;;5015877;28;20443;-76
2022/03/25 08:52:50;;;;;;;25.67;15.13;;;;;;;;;;5018059;28;20478;-77
2022/03/25 08:55:18;;;;;;;23.57;14.93;;;;;;;;;;5014189;28;20756;-77
2022/03/25 08:57:44;;;;;;;22.47;14.80;;;;;;;;;;5013839;28;20411;-77
2022/03/25 09:00:11;;;;;;;24.00;13.80;;;;;;;;;;5012965;28;20485;-77
2022/03/25 09:02:38;;;;;;;27.55;15.30;;;;;;;;;;5013819;28;20430;-76
2022/03/25 09:05:05;;;;;;;27.47;16.13;;;;;;;;;;5014792;28;20180;-77
2022/03/25 09:07:31;;;;;;;28.30;15.23;;;;;;;;;;5016885;28;20430;-77
2022/03/25 09:09:57;;;;;;;23.33;16.00;;;;;;;;;;5018373;28;20419;-78
2022/03/25 09:12:24;;;;;;;23.65;15.93;;;;;;;;;;5026411;28;20435;-78
2022/03/25 09:14:50;;;;;;;25.00;14.43;;;;;;;;;;5033412;28;20183;-79
2022/03/25 09:17:17;;;;;;;21.90;14.87;;;;;;;;;;5033850;28;20415;-79
2022/03/25 09:19:43;;;;;;;24.10;14.43;;;;;;;;;;5031874;28;20431;-81
2022/03/25 09:22:10;;;;;;;24.77;15.83;;;;;;;;;;5033937;28;20506;-79
2022/03/25 09:24:36;;;;;;;23.67;14.30;;;;;;;;;;5030263;28;20411;-79
2022/03/25 09:27:02;;;;;;;33.27;16.47;;;;;;;;;;5021580;28;20407;-77
2022/03/25 09:29:28;;;;;;;25.70;17.13;;;;;;;;;;5024254;28;20445;-78
2022/03/25 09:31:55;;;;;;;37.07;16.70;;;;;;;;;;5028058;28;20550;-78
2022/03/25 09:37:06;;;;;;;26.13;16.30;;;;;;;;;;5025766;28;20402;-78
2022/03/25 09:39:32;;;;;;;30.33;16.70;;;;;;;;;;5019349;28;20518;-78
2022/03/25 09:41:59;;;;;;;26.43;16.37;;;;;;;;;;5024342;28;20425;-78
2022/03/25 09:44:25;;;;;;;26.50;16.27;;;;;;;;;;5030171;28;20435;-77
2022/03/25 09:46:51;;;;;;;27.40;16.70;;;;;;;;;;5026916;28;20498;-78
2022/03/25 09:49:18;;;;;;;26.60;17.23;;;;;;;;;;5026866;28;20439;-78
2022/03/25 09:51:44;;;;;;;26.20;17.13;;;;;;;;;;5023525;28;20462;-78
2022/03/25 09:54:12;;;;;;;29.13;16.70;;;;;;;;;;5028030;28;20415;-79
2022/03/25 09:56:38;;;;;;;26.40;18.27;;;;;;;;;;5022276;28;20415;-78
2022/03/25 09:59:06;;;;;;;23.60;15.47;;;;;;;;;;5024501;28;20878;-77
2022/03/25 10:01:32;;;;;;;23.63;15.20;;;;;;;;;;5021972;28;20426;-79
2022/03/25 10:03:58;;;;;;;25.83;17.37;;;;;;;;;;5023851;28;20477;-78
2022/03/25 10:06:24;;;;;;;29.10;17.63;;;;;;;;;;5020974;28;20483;-79
2022/03/25 10:09:02;;;;;;;27.07;17.50;;;;;;;;;;5020122;28;21038;-78
2022/03/25 10:11:32;;;;;;;24.83;17.77;;;;;;;;;;5024776;28;20477;-78
2022/03/25 10:14:14;;;;;;;23.10;17.30;;;;;;;;;;5019642;28;20458;-77
2022/03/25 10:16:40;;;;;;;28.77;16.80;;;;;;;;;;5021714;28;20518;-78
2022/03/25 10:19:09;;;;;;;24.20;16.30;;;;;;;;;;5022305;28;20459;-78
2022/03/25 10:21:54;;;;;;;28.20;18.17;;;;;;;;;;5019877;28;20850;-79
2022/03/25 10:24:53;;;;;;;31.60;17.73;;;;;;;;;;5028600;28;20423;-78
2022/03/25 10:27:23;;;;;;;28.60;17.10;;;;;;;;;;4980226;28;20454;-78
2022/03/25 10:29:50;;;;;;;25.10;17.17;;;;;;;;;;5028609;28;21081;-79
2022/03/25 10:32:23;;;;;;;27.73;18.10;;;;;;;;;;5030587;28;20458;-79
2022/03/25 10:35:06;;;;;;;31.20;19.83;;;;;;;;;;5035158;28;20489;-79
2022/03/25 10:37:33;;;;;;;27.13;18.03;;;;;;;;;;5028229;28;20470;-79
2022/03/25 10:39:59;;;;;;;30.93;18.97;;;;;;;;;;5050195;28;20426;-79
2022/03/25 10:42:25;;;;;;;30.80;18.23;;;;;;;;;;5034160;28;20426;-79
2022/03/25 10:44:51;;;;;;;27.40;18.20;;;;;;;;;;5038659;28;20422;-79
2022/03/25 10:47:21;;;;;;;30.87;17.47;;;;;;;;;;5033589;28;20450;-79
2022/03/25 10:49:48;;;;;;;27.00;18.57;;;;;;;;;;5028649;28;20446;-78
2022/03/25 10:52:24;;;;;;;29.77;17.10;;;;;;;;;;5026780;28;20466;-79
2022/03/25 10:54:50;;;;;;;26.60;18.50;;;;;;;;;;5025101;28;20426;-79
2022/03/25 10:57:17;;;;;;;35.47;18.80;;;;;;;;;;5032080;28;20427;-79
2022/03/25 10:59:44;;;;;;;36.83;19.63;;;;;;;;;;5009316;28;20474;-79
2022/03/25 11:02:13;;;;;;;32.47;17.73;;;;;;;;;;5024333;28;20411;-78
2022/03/25 11:04:41;;;;;;;31.00;18.97;;;;;;;;;;5024743;28;20419;-79
2022/03/25 11:07:10;;;;;;;27.60;18.50;;;;;;;;;;5019666;28;20449;-79
2022/03/25 11:09:36;;;;;;;30.20;18.43;;;;;;;;;;5026027;28;20470;-80
2022/03/25 11:12:02;;;;;;;30.97;18.70;;;;;;;;;;5024117;28;21005;-78
2022/03/25 11:14:28;;;;;;;24.47;17.23;;;;;;;;;;5024505;28;20411;-78
2022/03/25 11:16:55;;;;;;;30.57;18.13;;;;;;;;;;5022297;28;20419;-78
2022/03/25 11:19:22;;;;;;;26.83;17.10;;;;;;;;;;5023506;28;20447;-78
2022/03/25 11:21:48;;;;;;;26.80;18.53;;;;;;;;;;5025619;28;20424;-78
2022/03/25 11:24:18;;;;;;;27.50;16.43;;;;;;;;;;5033608;28;20497;-77
2022/03/25 11:26:46;;;;;;;23.63;17.40;;;;;;;;;;5030378;28;20408;-78
2022/03/25 11:29:14;;;;;;;25.10;17.20;;;;;;;;;;5036387;28;20439;-78
2022/03/25 11:32:03;;;;;;;28.13;20.00;;;;;;;;;;5034259;28;20439;-79
2022/03/25 11:34:30;;;;;;;25.42;18.33;;;;;;;;;;5029974;28;20435;-80
2022/03/25 11:37:16;;;;;;;24.90;17.67;;;;;;;;;;5028716;28;20168;-79
2022/03/25 11:39:42;;;;;;;28.63;17.77;;;;;;;;;;5036652;28;20435;-79
2022/03/25 11:42:28;;;;;;;24.10;18.07;;;;;;;;;;5036005;28;20419;-78
2022/03/25 11:45:14;;;;;;;24.93;17.40;;;;;;;;;;5036195;28;20407;-79
2022/03/25 11:47:40;;;;;;;25.00;14.77;;;;;;;;;;5037582;28;20491;-78
2022/03/25 11:50:25;;;;;;;27.97;17.57;;;;;;;;;;5037592;28;20416;-79
2022/03/25 11:52:51;;;;;;;24.60;16.10;;;;;;;;;;5035981;28;20439;-81
2022/03/25 11:55:17;;;;;;;26.80;20.47;;;;;;;;;;5033077;28;20427;-80
2022/03/25 11:57:44;;;;;;;23.23;16.30;;;;;;;;;;5029898;28;20411;-79
2022/03/25 12:00:22;;;;;;;31.40;18.60;;;;;;;;;;5032938;28;20446;-78
2022/03/25 12:03:01;;;;;;;28.80;17.30;;;;;;;;;;5035436;28;20399;-81
2022/03/25 12:05:28;;;;;;;24.93;16.70;;;;;;;;;;5034961;28;20435;-79
2022/03/25 12:08:12;;;;;;;23.20;16.47;;;;;;;;;;5023477;28;20419;-78
2022/03/25 12:10:45;;;;;;;25.20;17.63;;;;;;;;;;5019297;28;21012;-77
2022/03/25 12:13:11;;;;;;;25.63;15.77;;;;;;;;;;5022498;28;20462;-79
2022/03/25 12:15:41;;;;;;;26.45;17.48;;;;;;;;;;5022233;28;20474;-78
2022/03/25 12:18:26;;;;;;;25.73;15.90;;;;;;;;;;5022067;28;20226;-78
2022/03/25 12:20:52;;;;;;;26.00;17.42;;;;;;;;;;5016226;28;20441;-78
2022/03/25 12:23:18;;;;;;;25.85;18.38;;;;;;;;;;5017566;28;20508;-79
2022/03/25 12:25:44;;;;;;;27.70;18.13;;;;;;;;;;5005113;28;20534;-78
2022/03/25 12:28:11;;;;;;;22.73;16.58;;;;;;;;;;5023049;28;20403;-79
2022/03/25 12:30:37;;;;;;;24.53;17.70;;;;;;;;;;5024330;28;20199;-78
2022/03/25 12:33:06;;;;;;;25.40;16.30;;;;;;;;;;5019177;28;20467;-78
2022/03/25 12:35:33;;;;;;;22.30;16.17;;;;;;;;;;5025062;28;20462;-78
2022/03/25 12:38:03;;;;;;;22.90;15.70;;;;;;;;;;5025134;28;20462;-78
2022/03/25 12:40:33;;;;;;;21.20;15.52;;;;;;;;;;5024912;28;20403;-78
2022/03/25 12:43:01;;;;;;;22.65;16.45;;;;;;;;;;5023518;28;20393;-78
2022/03/25 12:45:34;;;;;;;25.77;16.90;;;;;;;;;;5015788;28;20231;-77
2022/03/25 12:48:10;;;;;;;29.13;18.47;;;;;;;;;;5020909;28;20783;-78
2022/03/25 12:50:37;;;;;;;22.30;16.50;;;;;;;;;;5027201;28;20439;-78
2022/03/25 12:53:07;;;;;;;25.10;15.93;;;;;;;;;;5027545;28;20455;-78
2022/03/25 12:55:34;;;;;;;24.30;16.47;;;;;;;;;;5018794;28;20419;-79
2022/03/25 12:58:03;;;;;;;24.60;18.07;;;;;;;;;;5029452;28;20407;-79
2022/03/25 13:00:37;;;;;;;19.73;15.40;;;;;;;;;;5030479;28;20430;-79
2022/03/25 13:03:03;;;;;;;25.70;16.27;;;;;;;;;;5025760;28;20435;-78
2022/03/25 13:05:29;;;;;;;27.10;16.00;;;;;;;;;;5022886;28;20430;-78
2022/03/25 13:07:56;;;;;;;22.07;15.00;;;;;;;;;;5026256;28;20531;-79
2022/03/25 13:10:23;;;;;;;23.33;15.30;;;;;;;;;;5022872;28;20489;-78
2022/03/25 13:12:52;;;;;;;23.13;15.20;;;;;;;;;;5024979;28;20504;-78
2022/03/25 13:15:23;;;;;;;21.73;15.07;;;;;;;;;;5026705;28;20415;-78
2022/03/25 13:17:51;;;;;;;21.23;14.10;;;;;;;;;;5022947;28;20403;-78
2022/03/25 13:20:22;;;;;;;18.67;14.27;;;;;;;;;;5022442;28;20502;-78
2022/03/25 13:22:57;;;;;;;21.47;16.20;;;;;;;;;;5021563;28;20419;-78
2022/03/25 13:25:31;;;;;;;19.53;14.43;;;;;;;;;;5013368;28;20438;-79
2022/03/25 13:27:58;;;;;;;23.00;15.90;;;;;;;;;;5026034;28;20419;-78
2022/03/25 13:30:26;;;;;;;21.57;15.40;;;;;;;;;;5025721;28;20435;-79
2022/03/25 13:33:16;;;;;;;20.03;14.40;;;;;;;;;;5026630;28;20455;-78
2022/03/25 13:35:45;;;;;;;22.43;15.77;;;;;;;;;;5016471;28;20395;-78
2022/03/25 13:38:16;;;;;;;28.67;17.03;;;;;;;;;;5026808;28;20422;-79
2022/03/25 13:40:50;;;;;;;26.57;17.17;;;;;;;;;;5023233;28;20418;-78
2022/03/25 13:43:20;;;;;;;25.20;16.70;;;;;;;;;;5017709;28;20462;-78
2022/03/25 13:46:06;;;;;;;21.80;16.03;;;;;;;;;;5022400;28;20423;-79
2022/03/25 13:48:55;;;;;;;28.70;15.63;;;;;;;;;;5021739;28;20491;-78
2022/03/25 13:51:22;;;;;;;19.47;15.20;;;;;;;;;;5008046;28;20986;-78
2022/03/25 13:53:49;;;;;;;23.15;16.67;;;;;;;;;;5016600;28;20411;-78
2022/03/25 13:56:15;;;;;;;21.10;15.37;;;;;;;;;;5016728;28;20175;-78
2022/03/25 13:58:45;;;;;;;24.03;17.67;;;;;;;;;;5020383;28;20408;-79
2022/03/25 14:01:11;;;;;;;22.07;14.80;;;;;;;;;;5007442;28;20407;-78
2022/03/25 14:03:39;;;;;;;23.13;15.50;;;;;;;;;;5019652;28;20411;-78
2022/03/25 14:06:12;;;;;;;22.50;16.00;;;;;;;;;;5022366;28;20403;-78
2022/03/25 14:08:38;;;;;;;25.57;15.70;;;;;;;;;;5020257;28;20787;-79
2022/03/25 14:11:05;;;;;;;25.13;16.53;;;;;;;;;;5024902;28;20416;-78
2022/03/25 14:13:31;;;;;;;21.00;15.07;;;;;;;;;;5020397;28;20423;-79
2022/03/25 14:16:17;;;;;;;23.00;15.80;;;;;;;;;;5007927;28;20412;-78
2022/03/25 14:18:53;;;;;;;25.00;17.00;;;;;;;;;;5025987;28;20473;-78
2022/03/25 14:21:28;;;;;;;22.97;16.20;;;;;;;;;;5028907;28;20969;-79
2022/03/25 14:24:30;;;;;;;24.70;15.83;;;;;;;;;;5030274;28;20875;-79
2022/03/25 14:26:40;;;;;;;26.70;17.30;;;;;;;;;;5027888;28;20423;-79
2022/03/25 14:29:08;;;;;;;25.63;17.00;;;;;;;;;;5025672;28;20438;-78
2022/03/25 14:31:34;;;;;;;26.50;17.90;;;;;;;;;;5026588;28;20505;-78
2022/03/25 14:34:00;;;;;;;25.33;17.87;;;;;;;;;;5024637;28;20423;-78
2022/03/25 14:36:26;;;;;;;29.20;17.77;;;;;;;;;;5024932;28;20442;-78
2022/03/25 14:38:53;;;;;;;23.13;16.73;;;;;;;;;;5023593;28;20463;-78
2022/03/25 14:41:19;;;;;;;24.60;16.70;;;;;;;;;;5024266;28;20427;-78
2022/03/25 14:43:45;;;;;;;22.77;15.60;;;;;;;;;;5025387;28;20931;-78
2022/03/25 14:46:11;;;;;;;25.93;17.17;;;;;;;;;;5024139;28;20483;-78
2022/03/25 14:48:37;;;;;;;22.50;16.43;;;;;;;;;;5026003;28;20465;-79
2022/03/25 14:51:03;;;;;;;23.03;16.43;;;;;;;;;;5024348;28;20427;-79
2022/03/25 14:53:29;;;;;;;25.07;15.97;;;;;;;;;;5017444;28;20419;-78
2022/03/25 14:55:55;;;;;;;28.40;17.77;;;;;;;;;;5016431;28;20419;-78
2022/03/25 14:58:21;;;;;;;24.33;17.70;;;;;;;;;;5025201;28;20828;-78
2022/03/25 15:00:47;;;;;;;23.40;17.00;;;;;;;;;;5027143;28;20439;-78
2022/03/25 15:03:13;;;;;;;29.43;18.03;;;;;;;;;;5025837;28;20427;-78
2022/03/25 15:05:41;;;;;;;26.17;17.80;;;;;;;;;;5025083;28;20426;-78
2022/03/25 15:08:07;;;;;;;27.27;17.70;;;;;;;;;;5027334;28;20434;-78
2022/03/25 15:10:33;;;;;;;23.70;17.00;;;;;;;;;;5026337;28;20455;-78
2022/03/25 15:12:59;;;;;;;23.67;17.07;;;;;;;;;;5024358;28;20529;-78
2022/03/25 15:15:25;;;;;;;22.83;17.60;;;;;;;;;;5026436;28;20435;-78
2022/03/25 15:17:52;;;;;;;28.17;17.30;;;;;;;;;;5026161;28;20395;-79
2022/03/25 15:20:18;;;;;;;24.70;16.90;;;;;;;;;;5026159;28;20450;-79
2022/03/25 15:22:44;;;;;;;25.13;16.63;;;;;;;;;;5027000;28;20446;-78
2022/03/25 15:25:13;;;;;;;21.80;15.60;;;;;;;;;;5025747;28;20427;-80
2022/03/25 15:27:39;;;;;;;24.50;16.73;;;;;;;;;;5026144;28;20537;-78
2022/03/25 15:35:34;;;;;;;21.33;16.37;;;;;;;;;;5020204;28;20798;-77
2022/03/25 15:38:01;;;;;;;20.83;15.67;;;;;;;;;;5015996;28;20435;-78
2022/03/25 15:40:27;;;;;;;28.57;16.30;;;;;;;;;;5021003;28;20431;-77
2022/03/25 15:42:53;;;;;;;24.10;16.30;;;;;;;;;;5011377;28;20480;-77
2022/03/25 15:45:19;;;;;;;23.50;16.47;;;;;;;;;;4995505;28;20484;-77
2022/03/25 15:47:45;;;;;;;22.37;16.40;;;;;;;;;;5000209;28;20407;-77
2022/03/25 15:50:11;;;;;;;21.13;16.00;;;;;;;;;;5015437;28;20930;-78
2022/03/25 15:52:38;;;;;;;26.00;16.53;;;;;;;;;;5013417;28;20459;-79
2022/03/25 15:55:05;;;;;;;22.27;16.37;;;;;;;;;;5014167;28;20419;-76
2022/03/25 15:57:31;;;;;;;29.77;15.83;;;;;;;;;;5014307;28;20499;-76
2022/03/25 15:59:59;;;;;;;21.63;16.20;;;;;;;;;;5012789;28;20439;-76
2022/03/25 16:02:25;;;;;;;26.50;17.20;;;;;;;;;;5014360;28;20427;-77
2022/03/25 16:04:51;;;;;;;23.70;15.43;;;;;;;;;;5015481;28;20441;-77
2022/03/25 16:07:17;;;;;;;24.60;15.97;;;;;;;;;;5014717;28;21274;-77
2022/03/25 16:09:43;;;;;;;22.13;16.60;;;;;;;;;;5008819;28;20497;-77
2022/03/25 16:12:10;;;;;;;22.33;17.13;;;;;;;;;;5018580;28;20899;-77
2022/03/25 16:14:37;;;;;;;21.00;15.33;;;;;;;;;;4998741;28;20227;-77
2022/03/25 16:17:04;;;;;;;26.93;15.27;;;;;;;;;;5013901;28;20407;-79
2022/03/25 16:19:30;;;;;;;21.93;16.50;;;;;;;;;;5015283;28;20423;-77
2022/03/25 16:21:57;;;;;;;22.47;15.87;;;;;;;;;;5014538;28;20442;-77
2022/03/25 16:24:23;;;;;;;24.73;16.50;;;;;;;;;;5014567;28;20419;-76
2022/03/25 16:26:49;;;;;;;23.27;16.30;;;;;;;;;;5014998;28;20510;-77
2022/03/25 16:29:17;;;;;;;24.63;16.00;;;;;;;;;;5013519;28;20446;-77
2022/03/25 16:31:43;;;;;;;27.20;18.20;;;;;;;;;;5013878;28;20508;-77
2022/03/25 16:34:10;;;;;;;24.47;16.80;;;;;;;;;;5012590;28;20404;-77
2022/03/25 16:36:36;;;;;;;25.07;16.37;;;;;;;;;;5014205;28;20912;-77
2022/03/25 16:39:03;;;;;;;24.47;15.87;;;;;;;;;;5020801;28;20446;-77
2022/03/25 16:41:29;;;;;;;27.97;16.20;;;;;;;;;;5016564;28;20427;-77
2022/03/25 16:43:58;;;;;;;21.30;14.33;;;;;;;;;;5015484;28;20942;-78
2022/03/25 16:46:25;;;;;;;20.50;15.13;;;;;;;;;;5019557;28;20431;-79
2022/03/25 16:48:51;;;;;;;23.70;16.17;;;;;;;;;;5027986;28;20415;-78
2022/03/25 16:51:17;;;;;;;21.63;16.90;;;;;;;;;;5022005;28;20176;-77
2022/03/25 16:53:44;;;;;;;25.23;14.83;;;;;;;;;;5029252;28;20391;-78
2022/03/25 16:56:10;;;;;;;24.30;15.47;;;;;;;;;;5021648;28;20411;-77
2022/03/25 16:58:36;;;;;;;23.10;14.90;;;;;;;;;;5019991;28;20422;-77
2022/03/25 17:01:02;;;;;;;20.77;13.90;;;;;;;;;;5019286;28;20954;-78
2022/03/25 17:03:29;;;;;;;19.50;14.20;;;;;;;;;;5013035;28;20430;-77
2022/03/25 17:05:55;;;;;;;21.30;13.90;;;;;;;;;;5015422;28;20491;-77
2022/03/25 17:08:22;;;;;;;23.23;13.20;;;;;;;;;;5011725;28;20442;-77
2022/03/25 17:10:48;;;;;;;22.27;14.47;;;;;;;;;;5014855;28;20439;-77
2022/03/25 17:13:14;;;;;;;19.70;13.43;;;;;;;;;;5012644;28;20458;-78
2022/03/25 17:15:40;;;;;;;23.93;15.00;;;;;;;;;;5008848;28;20890;-78
2022/03/25 17:18:06;;;;;;;24.50;14.27;;;;;;;;;;5012450;28;20408;-79
2022/03/25 17:20:33;;;;;;;20.70;13.03;;;;;;;;;;5009324;28;20434;-77
2022/03/25 17:23:00;;;;;;;27.20;15.77;;;;;;;;;;5014568;28;20400;-77
2022/03/25 17:25:26;;;;;;;24.77;14.37;;;;;;;;;;5015069;28;20515;-77
2022/03/25 17:27:52;;;;;;;21.83;15.03;;;;;;;;;;5010232;28;20450;-77
2022/03/25 17:30:18;;;;;;;21.07;15.07;;;;;;;;;;5006956;28;20431;-78
2022/03/25 17:32:44;;;;;;;22.77;15.50;;;;;;;;;;5001568;28;20455;-77
2022/03/25 17:35:10;;;;;;;22.93;16.07;;;;;;;;;;5008691;28;20411;-78
2022/03/25 17:37:36;;;;;;;20.60;14.80;;;;;;;;;;5010364;28;20412;-78
2022/03/25 17:40:05;;;;;;;26.00;15.77;;;;;;;;;;5004983;28;20423;-79
2022/03/25 17:42:31;;;;;;;22.37;14.07;;;;;;;;;;5015063;28;20550;-78
2022/03/25 17:44:57;;;;;;;19.80;13.03;;;;;;;;;;5016523;28;20415;-77
2022/03/25 17:47:23;;;;;;;26.50;14.70;;;;;;;;;;5016214;28;20419;-78
2022/03/25 17:49:49;;;;;;;21.10;14.03;;;;;;;;;;5017470;28;20426;-77
2022/03/25 17:52:15;;;;;;;22.93;14.90;;;;;;;;;;5017271;28;20517;-78
2022/03/25 17:54:41;;;;;;;22.23;14.20;;;;;;;;;;5018048;28;20399;-79
2022/03/25 17:57:08;;;;;;;22.43;15.60;;;;;;;;;;5017214;28;20410;-78
2022/03/25 17:59:34;;;;;;;21.17;15.47;;;;;;;;;;5017707;28;20454;-78
2022/03/25 18:02:00;;;;;;;21.13;14.10;;;;;;;;;;5016956;28;20442;-78
2022/03/25 18:04:26;;;;;;;20.63;14.43;;;;;;;;;;5017772;28;20926;-78
2022/03/25 18:06:52;;;;;;;24.90;15.70;;;;;;;;;;5017677;28;20841;-78
2022/03/25 18:09:19;;;;;;;23.20;16.10;;;;;;;;;;5016933;28;20529;-78
2022/03/25 18:11:45;;;;;;;28.23;17.20;;;;;;;;;;5016653;28;20457;-78
2022/03/25 18:14:11;;;;;;;23.17;15.57;;;;;;;;;;5016734;28;20395;-77
2022/03/25 18:16:37;;;;;;;20.60;15.90;;;;;;;;;;5017009;28;20958;-77
2022/03/25 18:19:04;;;;;;;24.10;16.43;;;;;;;;;;5021667;28;20426;-76
2022/03/25 18:21:30;;;;;;;25.90;15.57;;;;;;;;;;5019379;28;20899;-77
2022/03/25 18:23:57;;;;;;;26.17;17.60;;;;;;;;;;5015796;28;20420;-77
2022/03/25 18:26:23;;;;;;;22.70;15.00;;;;;;;;;;5016652;28;20411;-78
2022/03/25 18:28:50;;;;;;;25.80;16.10;;;;;;;;;;5016432;28;20435;-77
2022/03/25 18:31:16;;;;;;;25.77;15.77;;;;;;;;;;5015149;28;20419;-78
2022/03/25 18:33:42;;;;;;;21.90;15.60;;;;;;;;;;5016501;28;20438;-77
2022/03/25 18:36:08;;;;;;;29.33;17.00;;;;;;;;;;5016006;28;20403;-77
2022/03/25 18:38:34;;;;;;;26.00;16.83;;;;;;;;;;5016781;28;20410;-77
2022/03/25 18:41:00;;;;;;;26.40;17.70;;;;;;;;;;5016345;28;20426;-77
2022/03/25 18:43:26;;;;;;;29.10;16.53;;;;;;;;;;5018553;28;20530;-77
2022/03/25 18:45:52;;;;;;;26.60;15.87;;;;;;;;;;5017663;28;20403;-78
2022/03/25 18:48:19;;;;;;;23.87;16.67;;;;;;;;;;5018969;28;20410;-78
2022/03/25 18:50:45;;;;;;;22.17;16.10;;;;;;;;;;5018083;28;20438;-78
2022/03/25 18:53:11;;;;;;;23.63;15.40;;;;;;;;;;5018727;28;20491;-78
2022/03/25 18:55:37;;;;;;;21.87;15.30;;;;;;;;;;5017334;28;20467;-78
2022/03/25 18:58:04;;;;;;;21.90;14.83;;;;;;;;;;5016862;28;20414;-78
2022/03/25 19:00:30;;;;;;;27.10;16.10;;;;;;;;;;5018027;28;20432;-78
2022/03/25 19:02:56;;;;;;;26.60;16.07;;;;;;;;;;5018062;28;20872;-78
2022/03/25 19:05:22;;;;;;;28.60;15.03;;;;;;;;;;5015601;28;20439;-77
2022/03/25 19:07:48;;;;;;;23.30;16.13;;;;;;;;;;5015598;28;20411;-77
2022/03/25 19:10:14;;;;;;;25.67;16.00;;;;;;;;;;5015301;28;20462;-77
2022/03/25 19:12:40;;;;;;;26.07;16.73;;;;;;;;;;5015258;28;20455;-77
2022/03/25 19:15:07;;;;;;;32.73;16.30;;;;;;;;;;5016087;28;20399;-78
2022/03/25 19:17:33;;;;;;;23.10;15.00;;;;;;;;;;5018153;28;20411;-77
2022/03/25 19:19:59;;;;;;;28.53;16.00;;;;;;;;;;5016666;28;20434;-77
2022/03/25 19:22:25;;;;;;;27.40;16.63;;;;;;;;;;5017533;28;20491;-77
2022/03/25 19:24:51;;;;;;;23.93;15.73;;;;;;;;;;5017712;28;20418;-77
2022/03/25 19:27:17;;;;;;;33.50;16.30;;;;;;;;;;5017739;28;20849;-77
2022/03/25 19:29:44;;;;;;;22.67;16.60;;;;;;;;;;5016963;28;20447;-77
2022/03/25 19:32:10;;;;;;;28.13;17.67;;;;;;;;;;5017808;28;20562;-78
2022/03/25 19:34:36;;;;;;;25.20;16.30;;;;;;;;;;5017181;28;20450;-76
2022/03/25 19:37:04;;;;;;;27.57;16.47;;;;;;;;;;5017299;28;20443;-78
2022/03/25 19:39:30;;;;;;;24.67;17.00;;;;;;;;;;5017292;28;20949;-78
2022/03/25 19:41:59;;;;;;;27.23;17.13;;;;;;;;;;5017170;28;20407;-78
2022/03/25 19:44:25;;;;;;;27.63;16.57;;;;;;;;;;5017557;28;20401;-77
2022/03/25 19:46:54;;;;;;;24.77;14.90;;;;;;;;;;5018326;28;20399;-77
2022/03/25 19:49:20;;;;;;;32.33;17.47;;;;;;;;;;5017228;28;20427;-77
2022/03/25 19:51:46;;;;;;;24.93;17.40;;;;;;;;;;5015761;28;20553;-77
2022/03/25 19:54:12;;;;;;;27.20;17.50;;;;;;;;;;5017183;28;20415;-77
2022/03/25 19:56:38;;;;;;;24.97;17.23;;;;;;;;;;5017791;28;20914;-79
2022/03/25 19:59:04;;;;;;;39.43;17.67;;;;;;;;;;5018076;28;20429;-78
2022/03/25 20:01:30;;;;;;;29.97;17.53;;;;;;;;;;5016963;28;20847;-77
2022/03/25 20:03:56;;;;;;;29.80;18.30;;;;;;;;;;5016611;28;20415;-77
2022/03/25 20:06:23;;;;;;;27.23;17.23;;;;;;;;;;5015411;28;20452;-78
2022/03/25 20:08:49;;;;;;;27.50;16.50;;;;;;;;;;5016437;28;20493;-77
2022/03/25 20:11:15;;;;;;;29.73;16.50;;;;;;;;;;5016411;28;20476;-77
2022/03/25 20:13:42;;;;;;;32.60;16.77;;;;;;;;;;5016407;28;20435;-77
2022/03/25 20:16:08;;;;;;;30.40;18.80;;;;;;;;;;5016704;28;20457;-77
2022/03/25 20:18:34;;;;;;;32.43;18.63;;;;;;;;;;5016228;28;20408;-77
2022/03/25 20:21:00;;;;;;;27.93;17.30;;;;;;;;;;5016164;28;20404;-77
2022/03/25 20:23:26;;;;;;;29.03;17.10;;;;;;;;;;5016493;28;20407;-77
2022/03/25 20:25:53;;;;;;;28.87;16.27;;;;;;;;;;5016197;28;20411;-77
2022/03/25 20:28:19;;;;;;;27.40;17.20;;;;;;;;;;5016637;28;20407;-77
2022/03/25 20:30:45;;;;;;;25.83;17.80;;;;;;;;;;5017805;28;20923;-77
2022/03/25 20:33:11;;;;;;;30.20;17.20;;;;;;;;;;5013934;28;20455;-77
2022/03/25 20:35:37;;;;;;;31.57;19.47;;;;;;;;;;5015274;28;20400;-76
2022/03/25 20:38:04;;;;;;;31.33;18.40;;;;;;;;;;5015387;28;20439;-78
2022/03/25 20:40:31;;;;;;;27.43;18.00;;;;;;;;;;5017158;28;20422;-77
2022/03/25 20:42:57;;;;;;;30.90;18.67;;;;;;;;;;5024388;28;20431;-77
2022/03/25 20:45:23;;;;;;;27.50;18.07;;;;;;;;;;5025231;28;20926;-77
2022/03/25 20:47:50;;;;;;;35.17;19.07;;;;;;;;;;5020601;28;20404;-77
2022/03/25 20:50:16;;;;;;;29.13;18.40;;;;;;;;;;5023938;28;20517;-77